Time;durP1;ratioP1;P1;durP2;ratioP2;P2;SDS_P1;SDS_P2;PMS_P1;PMS_P2;Temp;Humidity;BMP_temperature;BMP_pressure;BME280_temperature;BME280_humidity;BME280_pressure;Samples;Min_cycle;Max_cycle;Signal;HPM_P1;HPM_P2
2022/01/07 00:01:37;;;;;;;14.27;6.70;;;-1.60;74.20;;;;;;5023945;28;46323;-66
2022/01/07 00:04:04;;;;;;;17.30;6.97;;;-1.70;74.40;;;;;;5023206;28;45712;-66
2022/01/07 00:06:29;;;;;;;15.00;7.18;;;-1.90;74.60;;;;;;5023107;28;46465;-66
2022/01/07 00:08:55;;;;;;;18.73;7.13;;;-1.90;74.60;;;;;;5022447;28;46366;-66
2022/01/07 00:11:24;;;;;;;17.90;7.67;;;-2.00;74.60;;;;;;5022497;28;48121;-66
2022/01/07 00:13:50;;;;;;;16.58;6.55;;;-2.10;74.50;;;;;;5022357;28;46646;-66
2022/01/07 00:16:16;;;;;;;15.23;7.47;;;-2.10;74.50;;;;;;5022589;28;46517;-68
2022/01/07 00:18:44;;;;;;;16.33;6.88;;;-2.20;74.40;;;;;;5020704;28;46277;-68
2022/01/07 00:21:11;;;;;;;15.00;6.60;;;-2.20;74.30;;;;;;5022344;28;49061;-68
2022/01/07 00:23:38;;;;;;;13.32;7.82;;;-2.10;74.30;;;;;;5022328;28;46605;-68
2022/01/07 00:26:04;;;;;;;14.68;6.68;;;-2.00;74.30;;;;;;5022248;28;46471;-66
2022/01/07 00:28:32;;;;;;;14.90;6.75;;;-2.00;74.10;;;;;;5022319;28;46673;-67
2022/01/07 00:31:02;;;;;;;10.63;6.93;;;-1.90;74.10;;;;;;5020554;28;47223;-68
2022/01/07 00:33:27;;;;;;;10.43;5.93;;;-2.00;74.10;;;;;;5021939;28;46453;-67
2022/01/07 00:35:56;;;;;;;15.00;5.87;;;-2.10;74.20;;;;;;5022575;28;46508;-67
2022/01/07 00:38:22;;;;;;;14.98;7.40;;;-2.00;74.30;;;;;;5022686;28;46369;-67
2022/01/07 00:40:48;;;;;;;16.70;6.57;;;-2.00;74.10;;;;;;5021836;28;48797;-66
2022/01/07 00:43:16;;;;;;;16.57;6.37;;;-2.00;74.10;;;;;;5021803;28;46350;-66
2022/01/07 00:45:42;;;;;;;18.00;6.97;;;-2.10;74.10;;;;;;5022221;28;46433;-67
2022/01/07 00:48:07;;;;;;;13.37;7.33;;;-2.00;74.30;;;;;;5021781;28;46435;-65
2022/01/07 00:50:33;;;;;;;11.00;6.90;;;-2.00;74.30;;;;;;5021930;28;48024;-66
2022/01/07 00:52:59;;;;;;;13.80;6.83;;;-2.10;75.20;;;;;;5021539;28;46498;-65
2022/01/07 00:55:26;;;;;;;14.02;6.80;;;-2.10;74.10;;;;;;5021762;28;46428;-66
2022/01/07 00:57:53;;;;;;;10.68;6.10;;;-2.20;74.10;;;;;;5021566;28;46486;-65
2022/01/07 01:00:26;;;;;;;15.20;7.20;;;-2.20;74.30;;;;;;5021726;28;47707;-66
2022/01/07 01:02:55;;;;;;;12.15;6.47;;;-2.20;74.30;;;;;;5027559;28;46722;-66
2022/01/07 01:05:22;;;;;;;13.50;6.65;;;-2.30;74.60;;;;;;5021943;28;46202;-65
2022/01/07 01:07:48;;;;;;;16.30;6.88;;;-2.30;74.20;;;;;;5020848;28;45768;-66
2022/01/07 01:10:18;;;;;;;15.20;7.55;;;-2.40;74.20;;;;;;5021677;28;46554;-67
2022/01/07 01:12:45;;;;;;;11.88;6.90;;;-2.40;74.30;;;;;;5024362;28;46357;-64
2022/01/07 01:15:14;;;;;;;13.00;6.65;;;-2.50;74.20;;;;;;5024958;28;46362;-67
2022/01/07 01:17:40;;;;;;;12.05;6.40;;;-2.40;74.40;;;;;;5037814;28;46416;-65
2022/01/07 01:20:09;;;;;;;12.40;6.57;;;-2.40;74.30;;;;;;5023845;28;48098;-66
2022/01/07 01:22:35;;;;;;;14.80;5.95;;;-2.40;74.40;;;;;;5023212;28;46240;-66
2022/01/07 01:25:01;;;;;;;13.70;5.93;;;-2.50;74.30;;;;;;5023539;28;45823;-65
2022/01/07 01:27:27;;;;;;;9.80;5.35;;;-2.50;74.40;;;;;;5022108;28;45988;-65
2022/01/07 01:29:56;;;;;;;13.20;5.80;;;-2.50;74.40;;;;;;5023274;28;46442;-66
2022/01/07 01:32:21;;;;;;;11.82;5.60;;;-2.60;74.20;;;;;;5023003;28;46426;-66
2022/01/07 01:34:47;;;;;;;9.47;5.73;;;-2.60;74.40;;;;;;5022266;28;46423;-66
2022/01/07 01:37:13;;;;;;;12.57;6.63;;;-2.60;74.30;;;;;;5023619;28;46655;-66
2022/01/07 01:39:39;;;;;;;19.53;6.50;;;-2.60;74.30;;;;;;5021541;28;47293;-64
2022/01/07 01:42:05;;;;;;;10.47;6.10;;;-2.40;74.20;;;;;;5021809;28;45799;-67
2022/01/07 01:44:30;;;;;;;10.83;5.97;;;-2.30;74.00;;;;;;5022399;28;45877;-66
2022/01/07 01:47:03;;;;;;;21.87;6.43;;;-2.40;74.10;;;;;;5022637;28;46374;-66
2022/01/07 01:49:32;;;;;;;9.45;5.47;;;-2.40;74.10;;;;;;5020952;28;48581;-67
2022/01/07 01:52:01;;;;;;;12.52;6.50;;;-2.30;74.10;;;;;;5033389;28;46644;-64
2022/01/07 01:54:26;;;;;;;11.70;5.80;;;-2.40;74.10;;;;;;5009431;28;45879;-66
2022/01/07 01:56:52;;;;;;;17.00;5.50;;;-2.40;74.20;;;;;;5021337;28;45837;-65
2022/01/07 01:59:29;;;;;;;17.05;6.78;;;-2.40;74.40;;;;;;5021066;28;49146;-66
2022/01/07 02:01:59;;;;;;;8.05;5.32;;;-2.40;74.50;;;;;;5021063;28;46300;-67
2022/01/07 02:04:25;;;;;;;13.40;6.78;;;-2.50;74.60;;;;;;5021259;28;46470;-65
2022/01/07 02:06:51;;;;;;;12.63;5.70;;;-2.40;74.70;;;;;;5021900;28;46350;-66
2022/01/07 02:09:19;;;;;;;14.67;6.73;;;-2.30;74.70;;;;;;5020800;28;47820;-65
2022/01/07 02:11:45;;;;;;;13.23;5.75;;;-2.30;74.60;;;;;;5021070;28;46415;-66
2022/01/07 02:14:11;;;;;;;13.80;6.73;;;-2.50;74.70;;;;;;5021287;28;46470;-66
2022/01/07 02:16:36;;;;;;;16.90;6.80;;;-2.60;74.80;;;;;;5020922;28;46019;-66
2022/01/07 02:19:02;;;;;;;16.57;7.17;;;-2.70;74.80;;;;;;5019613;28;47600;-67
2022/01/07 02:21:28;;;;;;;12.13;5.80;;;-2.70;74.80;;;;;;5020281;28;46509;-66
2022/01/07 02:23:53;;;;;;;14.93;6.20;;;-2.70;74.70;;;;;;5022355;28;46331;-66
2022/01/07 02:26:20;;;;;;;10.30;6.40;;;-2.80;74.70;;;;;;5021336;28;46618;-67
2022/01/07 02:28:49;;;;;;;9.88;5.80;;;-2.90;74.60;;;;;;5022185;28;46354;-68
2022/01/07 02:31:15;;;;;;;10.98;6.10;;;-2.90;74.60;;;;;;5019978;28;46350;-66
2022/01/07 02:33:43;;;;;;;11.60;6.10;;;-2.90;74.70;;;;;;5020873;28;46383;-67
2022/01/07 02:36:10;;;;;;;11.20;6.18;;;-2.90;74.60;;;;;;5020615;28;46530;-67
2022/01/07 02:38:36;;;;;;;10.15;6.72;;;-3.00;74.50;;;;;;5020395;28;47912;-67
2022/01/07 02:41:02;;;;;;;9.38;5.78;;;-2.90;74.70;;;;;;5021765;28;46004;-66
2022/01/07 02:43:29;;;;;;;15.65;7.10;;;-2.80;74.70;;;;;;5026978;28;46367;-66
2022/01/07 02:45:55;;;;;;;12.07;5.82;;;-2.90;74.60;;;;;;5035170;28;46291;-65
2022/01/07 02:48:20;;;;;;;12.70;6.30;;;-2.80;74.70;;;;;;5020553;28;49063;-67
2022/01/07 02:50:46;;;;;;;13.90;7.03;;;-2.80;74.70;;;;;;5020571;28;46358;-67
2022/01/07 02:53:17;;;;;;;12.10;6.90;;;-2.60;74.60;;;;;;5020749;28;46255;-66
2022/01/07 02:55:44;;;;;;;11.23;6.25;;;-2.70;74.50;;;;;;5020238;28;46550;-67
2022/01/07 02:58:10;;;;;;;14.30;6.30;;;-2.90;74.60;;;;;;5020145;28;47953;-67
2022/01/07 03:00:36;;;;;;;23.43;7.07;;;-2.80;74.70;;;;;;5020694;28;46415;-68
2022/01/07 03:03:04;;;;;;;14.23;7.25;;;-2.80;74.80;;;;;;5020534;28;46267;-67
2022/01/07 03:05:30;;;;;;;14.07;6.50;;;-2.80;74.80;;;;;;5020748;28;46443;-66
2022/01/07 03:07:56;;;;;;;13.23;6.17;;;-2.90;74.80;;;;;;5020035;28;48876;-65
2022/01/07 03:10:30;;;;;;;16.05;6.40;;;-2.80;75.00;;;;;;5020310;28;46441;-65
2022/01/07 03:12:57;;;;;;;14.90;7.03;;;-2.80;74.90;;;;;;5019617;28;46423;-66
2022/01/07 03:15:23;;;;;;;14.82;6.82;;;-2.80;75.00;;;;;;5020576;28;46589;-67
2022/01/07 03:17:49;;;;;;;17.80;6.00;;;-2.80;74.90;;;;;;5019811;28;47792;-67
2022/01/07 03:20:19;;;;;;;16.75;6.18;;;-2.90;75.00;;;;;;5020152;28;46302;-64
2022/01/07 03:22:47;;;;;;;11.65;5.88;;;-2.90;75.10;;;;;;5020303;28;46341;-64
2022/01/07 03:25:14;;;;;;;12.25;6.35;;;-2.90;75.10;;;;;;5022818;28;46643;-65
2022/01/07 03:27:40;;;;;;;14.65;5.93;;;-2.90;75.00;;;;;;5036485;28;48858;-66
2022/01/07 03:30:09;;;;;;;12.50;7.30;;;-2.90;75.20;;;;;;5021338;28;46407;-65
2022/01/07 03:32:34;;;;;;;11.90;5.95;;;-2.90;75.10;;;;;;5030456;28;46380;-67
2022/01/07 03:35:00;;;;;;;10.77;6.07;;;-3.00;75.00;;;;;;5023331;28;46351;-66
2022/01/07 03:37:29;;;;;;;10.90;5.03;;;-3.00;75.00;;;;;;5022187;28;46581;-66
2022/01/07 03:39:55;;;;;;;16.98;5.78;;;-3.10;75.10;;;;;;5022851;28;46272;-66
2022/01/07 03:42:21;;;;;;;12.47;7.60;;;-3.20;75.20;;;;;;5023175;28;45829;-66
2022/01/07 03:44:46;;;;;;;18.53;7.43;;;-3.20;75.20;;;;;;5023026;28;46381;-65
2022/01/07 03:47:12;;;;;;;13.60;6.80;;;-3.20;75.20;;;;;;5022517;28;48041;-66
2022/01/07 03:49:38;;;;;;;18.83;7.50;;;-3.10;75.10;;;;;;5021039;28;46743;-66
2022/01/07 03:52:04;;;;;;;14.80;5.73;;;-3.10;74.90;;;;;;5022491;28;46456;-67
2022/01/07 03:54:30;;;;;;;9.65;5.88;;;-3.10;75.10;;;;;;5022941;28;46554;-66
2022/01/07 03:56:55;;;;;;;9.83;5.53;;;-3.10;75.00;;;;;;5022737;28;48127;-66
2022/01/07 03:59:21;;;;;;;14.93;5.27;;;-3.10;75.00;;;;;;5022763;28;46408;-66
2022/01/07 04:01:47;;;;;;;11.70;5.70;;;-3.10;75.10;;;;;;5022680;28;45839;-65
2022/01/07 04:04:13;;;;;;;9.83;4.53;;;-3.00;75.00;;;;;;5023059;28;46672;-65
2022/01/07 04:06:38;;;;;;;8.00;5.07;;;-3.00;75.30;;;;;;5022559;28;48627;-66
2022/01/07 04:09:04;;;;;;;9.13;5.73;;;-3.00;75.00;;;;;;5021746;28;46420;-66
2022/01/07 04:11:30;;;;;;;11.80;5.40;;;-3.00;75.10;;;;;;5022668;28;45799;-66
2022/01/07 04:13:57;;;;;;;10.03;4.57;;;-3.10;75.10;;;;;;5027749;28;46279;-67
2022/01/07 04:16:23;;;;;;;10.70;5.00;;;-3.10;75.10;;;;;;5022420;28;48749;-67
2022/01/07 04:18:52;;;;;;;10.83;5.10;;;-3.20;75.20;;;;;;5022152;28;46529;-66
2022/01/07 04:21:17;;;;;;;8.18;4.60;;;-3.30;75.40;;;;;;5023541;28;46357;-66
2022/01/07 04:23:43;;;;;;;11.00;4.70;;;-3.30;75.60;;;;;;5022597;28;46295;-67
2022/01/07 04:26:09;;;;;;;8.50;4.60;;;-3.30;75.50;;;;;;5022771;28;47884;-66
2022/01/07 04:28:34;;;;;;;9.03;4.07;;;-3.30;75.30;;;;;;5021995;28;46461;-66
2022/01/07 04:31:00;;;;;;;14.43;4.57;;;-3.20;75.20;;;;;;5024281;28;46417;-66
2022/01/07 04:33:29;;;;;;;8.30;4.37;;;-3.40;75.10;;;;;;5022535;28;46307;-67
2022/01/07 04:35:55;;;;;;;10.60;4.15;;;-3.50;75.20;;;;;;5020680;28;48809;-67
2022/01/07 04:38:22;;;;;;;9.50;3.17;;;-3.50;75.20;;;;;;5021525;28;46554;-67
2022/01/07 04:40:47;;;;;;;6.60;3.80;;;-3.50;75.00;;;;;;5021870;28;46481;-66
2022/01/07 04:43:16;;;;;;;11.10;4.10;;;-3.50;75.10;;;;;;5021785;28;45989;-66
2022/01/07 04:45:42;;;;;;;8.65;3.65;;;-3.50;75.00;;;;;;5022044;28;48020;-66
2022/01/07 04:48:08;;;;;;;6.63;3.75;;;-3.60;74.80;;;;;;5021788;28;46563;-65
2022/01/07 04:50:34;;;;;;;11.57;4.50;;;-3.60;74.80;;;;;;5022000;28;46496;-65
2022/01/07 04:53:00;;;;;;;9.43;4.03;;;-3.60;74.70;;;;;;5037036;28;46333;-67
2022/01/07 04:55:36;;;;;;;6.75;3.53;;;-3.60;74.80;;;;;;5021655;28;48240;-68
2022/01/07 04:58:03;;;;;;;8.40;4.20;;;-3.50;74.80;;;;;;5021372;28;46532;-66
2022/01/07 05:00:29;;;;;;;7.50;3.53;;;-3.40;74.70;;;;;;5030486;28;46355;-66
2022/01/07 05:02:55;;;;;;;12.80;4.22;;;-3.30;74.80;;;;;;5038012;28;46576;-66
2022/01/07 05:05:20;;;;;;;6.60;3.30;;;-3.30;74.70;;;;;;5021501;28;46542;-66
2022/01/07 05:07:46;;;;;;;6.20;3.40;;;-3.30;74.70;;;;;;5027537;28;46318;-65
2022/01/07 05:10:14;;;;;;;5.37;3.83;;;-3.40;74.90;;;;;;5023114;28;46479;-66
2022/01/07 05:12:40;;;;;;;6.03;3.58;;;-3.50;75.00;;;;;;5028150;28;46591;-68
2022/01/07 05:15:06;;;;;;;10.23;3.88;;;-3.40;75.10;;;;;;5021546;28;47950;-65
2022/01/07 05:17:35;;;;;;;5.97;3.40;;;-3.40;74.90;;;;;;5021390;28;46366;-65
2022/01/07 05:20:01;;;;;;;6.05;3.50;;;-3.40;74.80;;;;;;5021055;28;46331;-66
2022/01/07 05:22:28;;;;;;;7.57;3.30;;;-3.50;74.80;;;;;;5021386;28;46385;-65
2022/01/07 05:24:53;;;;;;;9.48;3.17;;;-3.40;75.00;;;;;;5021385;28;48089;-67
2022/01/07 05:27:19;;;;;;;4.77;3.33;;;-3.30;74.90;;;;;;5021591;28;46475;-69
2022/01/07 05:29:45;;;;;;;5.07;3.17;;;-3.30;74.70;;;;;;5021825;28;46473;-67
2022/01/07 05:32:11;;;;;;;6.30;2.67;;;-3.30;74.50;;;;;;5021598;28;45996;-67
2022/01/07 05:34:36;;;;;;;5.00;2.73;;;-3.30;74.60;;;;;;5020945;28;47991;-67
2022/01/07 05:37:02;;;;;;;2.97;2.20;;;-3.30;74.60;;;;;;5021443;28;46759;-67
2022/01/07 05:39:31;;;;;;;4.18;2.45;;;-3.30;74.50;;;;;;5020935;28;46414;-67
2022/01/07 05:41:58;;;;;;;4.10;2.10;;;-3.40;74.50;;;;;;5022907;28;46351;-66
2022/01/07 05:44:26;;;;;;;5.85;2.53;;;-3.40;74.60;;;;;;5021192;28;48552;-67
2022/01/07 05:46:52;;;;;;;10.68;2.80;;;-3.40;74.60;;;;;;5022029;28;46476;-65
2022/01/07 05:49:18;;;;;;;4.97;2.40;;;-3.40;74.70;;;;;;5020883;28;46466;-66
2022/01/07 05:51:44;;;;;;;3.92;2.13;;;-3.40;74.50;;;;;;5023969;28;46289;-67
2022/01/07 05:54:10;;;;;;;4.77;2.60;;;-3.30;74.60;;;;;;5020949;28;47490;-66
2022/01/07 05:56:36;;;;;;;7.70;2.37;;;-3.20;74.40;;;;;;5021215;28;46427;-65
2022/01/07 05:59:03;;;;;;;2.45;2.10;;;-3.30;74.20;;;;;;5020888;28;46382;-66
2022/01/07 06:01:29;;;;;;;4.10;2.40;;;-3.40;74.10;;;;;;5020767;28;46435;-65
2022/01/07 06:03:54;;;;;;;3.10;2.20;;;-3.40;74.10;;;;;;5020963;28;47753;-65
2022/01/07 06:06:20;;;;;;;3.60;1.73;;;-3.40;74.30;;;;;;5020931;28;46393;-66
2022/01/07 06:08:46;;;;;;;2.70;1.80;;;-3.40;74.10;;;;;;5020665;28;46498;-65
2022/01/07 06:11:11;;;;;;;3.33;2.30;;;-3.40;74.10;;;;;;5021153;28;46390;-65
2022/01/07 06:13:37;;;;;;;3.40;1.80;;;-3.50;74.10;;;;;;5022425;28;46759;-66
2022/01/07 06:16:04;;;;;;;8.63;2.70;;;-3.50;74.10;;;;;;5021014;28;46346;-67
2022/01/07 06:18:30;;;;;;;4.28;2.17;;;-3.40;74.10;;;;;;5036876;28;46282;-67
2022/01/07 06:20:55;;;;;;;4.32;2.28;;;-3.40;73.90;;;;;;5021126;28;46347;-66
2022/01/07 06:23:21;;;;;;;3.73;2.43;;;-3.40;74.00;;;;;;5020541;28;47718;-66
2022/01/07 06:25:50;;;;;;;4.50;2.40;;;-3.50;73.80;;;;;;5020900;28;46385;-66
2022/01/07 06:28:19;;;;;;;3.88;2.40;;;-3.50;73.90;;;;;;5020751;28;46431;-64
2022/01/07 06:30:47;;;;;;;2.70;1.80;;;-3.50;73.70;;;;;;5020614;28;46315;-66
2022/01/07 06:33:12;;;;;;;7.93;2.10;;;-3.50;73.60;;;;;;5020798;28;48884;-66
2022/01/07 06:35:41;;;;;;;11.90;2.40;;;-3.50;73.60;;;;;;5020723;28;46464;-66
2022/01/07 06:38:07;;;;;;;3.90;2.53;;;-3.50;73.70;;;;;;5020223;28;46398;-66
2022/01/07 06:40:38;;;;;;;6.03;3.42;;;-3.50;73.60;;;;;;5014965;28;46127;-67
2022/01/07 06:43:04;;;;;;;4.28;2.40;;;-3.50;73.90;;;;;;5019873;28;48053;-67
2022/01/07 06:45:30;;;;;;;4.95;2.58;;;-3.50;74.40;;;;;;5018612;28;46477;-66
2022/01/07 06:47:56;;;;;;;5.10;3.05;;;-3.50;74.40;;;;;;5019687;28;47201;-66
2022/01/07 06:50:21;;;;;;;12.75;8.35;;;-3.50;74.20;;;;;;5018741;28;46629;-65
2022/01/07 06:52:47;;;;;;;6.17;4.33;;;-3.50;74.10;;;;;;5018795;28;47938;-66
2022/01/07 06:55:16;;;;;;;5.40;3.90;;;-3.50;74.00;;;;;;5020202;28;46488;-65
2022/01/07 06:57:41;;;;;;;33.95;15.93;;;-3.40;74.00;;;;;;5035803;28;46316;-66
2022/01/07 07:00:08;;;;;;;21.43;11.87;;;-3.40;73.90;;;;;;5030098;28;45957;-66
2022/01/07 07:02:34;;;;;;;6.32;3.78;;;-3.40;73.90;;;;;;5019775;28;46405;-66
2022/01/07 07:04:59;;;;;;;23.20;10.93;;;-3.40;73.80;;;;;;5020982;28;46655;-66
2022/01/07 07:07:25;;;;;;;24.60;10.37;;;-3.30;73.80;;;;;;5023053;28;46374;-66
2022/01/07 07:09:51;;;;;;;12.63;5.50;;;-3.30;73.50;;;;;;5022412;28;46353;-66
2022/01/07 07:12:16;;;;;;;12.83;6.37;;;-3.30;73.50;;;;;;5028244;28;49024;-66
2022/01/07 07:14:42;;;;;;;14.05;7.10;;;-3.20;73.50;;;;;;5022275;28;46383;-66
2022/01/07 07:17:08;;;;;;;9.53;5.30;;;-3.20;73.60;;;;;;5023813;28;45938;-66
2022/01/07 07:19:34;;;;;;;9.00;5.23;;;-3.20;74.00;;;;;;5036814;28;46320;-66
2022/01/07 07:22:00;;;;;;;12.87;5.70;;;-3.10;74.00;;;;;;5018362;28;49112;-66
2022/01/07 07:24:25;;;;;;;15.60;7.60;;;-3.00;74.00;;;;;;5022140;28;46410;-68
2022/01/07 07:26:51;;;;;;;22.40;11.90;;;-2.80;73.60;;;;;;5018508;28;46486;-66
2022/01/07 07:29:17;;;;;;;14.73;8.13;;;-2.60;73.10;;;;;;5025704;28;46347;-66
2022/01/07 07:31:47;;;;;;;17.70;9.00;;;-2.40;72.60;;;;;;5025565;28;49041;-66
2022/01/07 07:36:44;;;;;;;17.63;8.52;;;-2.20;71.80;;;;;;5019842;28;46458;-66
2022/01/07 07:39:11;;;;;;;11.43;7.13;;;-2.00;71.70;;;;;;5038218;28;45928;-67
2022/01/07 07:41:38;;;;;;;14.95;7.07;;;-1.90;71.50;;;;;;5021601;28;47860;-66
2022/01/07 07:44:06;;;;;;;39.90;17.33;;;-1.80;71.40;;;;;;5023191;28;46383;-66
2022/01/07 07:46:33;;;;;;;9.50;6.13;;;-1.70;71.10;;;;;;5020180;28;46306;-67
2022/01/07 07:49:00;;;;;;;12.40;6.47;;;-1.60;71.10;;;;;;5023323;28;46601;-67
2022/01/07 07:51:27;;;;;;;10.50;5.90;;;-1.60;71.30;;;;;;5033127;28;48047;-67
2022/01/07 07:53:53;;;;;;;8.23;5.60;;;-1.50;71.30;;;;;;5022583;28;46739;-66
2022/01/07 07:56:22;;;;;;;7.85;4.90;;;-1.40;71.10;;;;;;5022375;28;46398;-66
2022/01/07 07:58:48;;;;;;;12.50;6.22;;;-1.40;71.00;;;;;;5016652;28;46613;-66
2022/01/07 08:01:17;;;;;;;10.60;5.65;;;-1.30;71.00;;;;;;5020903;28;46378;-64
2022/01/07 08:03:44;;;;;;;10.35;6.90;;;-1.20;70.80;;;;;;5020095;28;46523;-66
2022/01/07 08:06:09;;;;;;;13.85;6.85;;;-1.10;70.60;;;;;;5022145;28;45863;-64
2022/01/07 08:08:38;;;;;;;13.63;8.10;;;-1.00;70.60;;;;;;5028328;28;46472;-66
2022/01/07 08:11:07;;;;;;;11.75;8.32;;;-0.90;70.50;;;;;;5031790;28;46593;-68
2022/01/07 08:16:19;;;;;;;13.57;8.05;;;-0.70;70.20;;;;;;5032707;28;46353;-66
2022/01/07 08:18:49;;;;;;;11.82;7.10;;;-0.50;69.80;;;;;;5022405;28;46549;-66
2022/01/07 08:21:18;;;;;;;13.23;7.18;;;-0.50;69.70;;;;;;5012624;28;47940;-67
2022/01/07 08:23:46;;;;;;;12.45;7.15;;;-0.50;69.80;;;;;;5018398;28;46451;-65
2022/01/07 08:26:13;;;;;;;14.40;7.82;;;-0.40;69.90;;;;;;5022640;28;46449;-67
2022/01/07 08:28:48;;;;;;;14.23;7.28;;;-0.40;69.90;;;;;;5019989;28;46297;-65
2022/01/07 08:36:30;;;;;;;34.83;16.92;;;-0.20;70.00;;;;;;5022672;28;46405;-65
2022/01/07 08:38:56;;;;;;;14.35;8.40;;;-0.10;69.90;;;;;;5022810;28;46560;-67
2022/01/07 08:41:25;;;;;;;15.50;8.77;;;0.00;69.40;;;;;;5023153;28;46354;-67
2022/01/07 08:43:52;;;;;;;17.95;8.75;;;0.10;69.40;;;;;;5021159;28;46601;-65
2022/01/07 08:46:18;;;;;;;12.32;8.75;;;0.10;69.40;;;;;;5022004;28;46371;-66
2022/01/07 08:48:44;;;;;;;14.73;8.30;;;0.20;69.60;;;;;;5020955;28;46734;-65
2022/01/07 08:51:10;;;;;;;16.00;8.93;;;0.30;69.60;;;;;;5020719;28;47649;-66
2022/01/07 08:53:36;;;;;;;16.83;9.40;;;0.30;69.60;;;;;;5019086;28;46552;-67
2022/01/07 08:56:03;;;;;;;15.77;8.93;;;0.30;69.60;;;;;;5019216;28;46442;-66
2022/01/07 08:58:29;;;;;;;15.10;10.15;;;0.40;69.70;;;;;;5018908;28;45964;-66
2022/01/07 09:00:58;;;;;;;17.43;9.10;;;0.40;69.80;;;;;;5019880;28;46723;-66
2022/01/07 09:03:25;;;;;;;16.98;9.88;;;0.40;69.70;;;;;;5021581;28;46111;-66
2022/01/07 09:05:51;;;;;;;19.23;10.20;;;0.40;69.70;;;;;;5021521;28;46457;-65
2022/01/07 09:08:17;;;;;;;17.85;9.50;;;0.50;69.90;;;;;;5020882;28;46316;-65
2022/01/07 09:10:43;;;;;;;15.73;9.50;;;0.60;69.90;;;;;;5017688;28;46694;-65
2022/01/07 09:13:09;;;;;;;19.23;10.10;;;0.70;70.00;;;;;;5018660;28;45963;-65
2022/01/07 09:15:35;;;;;;;19.50;10.30;;;0.80;70.00;;;;;;5019579;28;46450;-65
2022/01/07 09:18:09;;;;;;;19.65;9.52;;;0.90;70.10;;;;;;5017793;28;46410;-65
2022/01/07 09:20:39;;;;;;;14.75;8.25;;;0.90;70.10;;;;;;5018875;28;47364;-65
2022/01/07 09:23:06;;;;;;;16.83;9.20;;;1.00;70.20;;;;;;5018826;28;46437;-65
2022/01/07 09:25:32;;;;;;;15.10;9.23;;;1.00;70.20;;;;;;5020340;28;46507;-67
2022/01/07 09:27:58;;;;;;;12.50;7.85;;;1.10;70.30;;;;;;5018882;28;46628;-67
2022/01/07 09:30:24;;;;;;;14.50;8.83;;;1.20;70.40;;;;;;5020079;28;46664;-67
2022/01/07 09:32:50;;;;;;;16.25;9.43;;;1.20;70.40;;;;;;5019931;28;46367;-67
2022/01/07 09:35:17;;;;;;;15.90;9.13;;;1.30;70.50;;;;;;5021576;28;46508;-67
2022/01/07 09:37:43;;;;;;;12.45;7.93;;;1.40;70.50;;;;;;5020598;28;46441;-68
2022/01/07 09:40:10;;;;;;;17.20;9.65;;;1.50;70.00;;;;;;5019763;28;46374;-68
2022/01/07 09:42:39;;;;;;;20.80;9.60;;;1.60;70.10;;;;;;5020930;28;46567;-67
2022/01/07 09:45:06;;;;;;;16.85;10.15;;;1.70;70.20;;;;;;5019253;28;46505;-66
2022/01/07 09:47:31;;;;;;;21.23;9.30;;;1.80;69.80;;;;;;5019690;28;45930;-67
2022/01/07 09:49:57;;;;;;;15.27;8.47;;;1.90;69.70;;;;;;5019544;28;46663;-66
2022/01/07 09:52:27;;;;;;;14.80;9.10;;;2.10;69.30;;;;;;5019385;28;46478;-67
2022/01/07 09:54:52;;;;;;;14.85;8.00;;;2.10;69.10;;;;;;5018638;28;46387;-67
2022/01/07 09:57:24;;;;;;;16.20;9.13;;;2.10;68.80;;;;;;5020048;28;46502;-67
2022/01/07 09:59:54;;;;;;;16.67;9.23;;;2.00;69.00;;;;;;5019919;28;46433;-66
2022/01/07 10:02:19;;;;;;;17.25;8.07;;;2.00;69.10;;;;;;5017922;28;46718;-66
2022/01/07 10:04:47;;;;;;;14.63;8.77;;;2.10;69.10;;;;;;5018989;28;46508;-67
2022/01/07 10:07:17;;;;;;;15.20;9.25;;;2.10;69.20;;;;;;5018858;28;46489;-66
2022/01/07 10:10:06;;;;;;;16.25;9.05;;;2.10;69.10;;;;;;5018015;28;48954;-68
2022/01/07 10:12:51;;;;;;;19.73;9.75;;;2.10;69.40;;;;;;5012181;28;46655;-67
2022/01/07 10:15:25;;;;;;;13.40;8.05;;;2.00;69.40;;;;;;5018246;28;46459;-66
2022/01/07 10:17:59;;;;;;;13.80;8.10;;;2.00;69.40;;;;;;5016820;28;46382;-67
2022/01/07 10:20:29;;;;;;;14.93;8.73;;;2.10;69.50;;;;;;5018047;28;47969;-66
2022/01/07 10:23:00;;;;;;;16.48;9.60;;;2.10;69.40;;;;;;5017537;28;46377;-66
2022/01/07 10:25:31;;;;;;;16.60;8.98;;;2.20;69.30;;;;;;5018070;28;46492;-67
2022/01/07 10:28:04;;;;;;;13.50;8.20;;;2.10;69.40;;;;;;5016764;28;46702;-67
2022/01/07 10:30:44;;;;;;;12.70;7.78;;;2.10;69.30;;;;;;5017841;28;46409;-66
2022/01/07 10:33:28;;;;;;;15.82;8.32;;;2.20;69.10;;;;;;5018215;28;46454;-66
2022/01/07 10:36:06;;;;;;;14.43;7.20;;;2.40;69.00;;;;;;5014663;28;46406;-66
2022/01/07 10:38:32;;;;;;;11.65;7.28;;;2.50;68.80;;;;;;5017420;28;46541;-66
2022/01/07 10:41:01;;;;;;;20.38;12.00;;;2.60;68.60;;;;;;5020150;28;48046;-66
2022/01/07 10:43:34;;;;;;;15.50;9.40;;;2.70;68.20;;;;;;5022193;28;46386;-67
2022/01/07 10:46:11;;;;;;;12.77;7.78;;;2.70;68.00;;;;;;5020626;28;46397;-66
2022/01/07 10:48:38;;;;;;;14.55;8.95;;;2.80;68.20;;;;;;5020955;28;46403;-66
2022/01/07 10:51:09;;;;;;;14.48;9.23;;;2.80;68.10;;;;;;5021866;28;45942;-65
2022/01/07 10:53:38;;;;;;;11.40;7.05;;;2.90;67.80;;;;;;5021529;28;46448;-66
2022/01/07 10:56:06;;;;;;;12.50;7.68;;;2.90;67.80;;;;;;5023092;28;45915;-67
2022/01/07 10:58:50;;;;;;;10.25;7.05;;;2.90;67.70;;;;;;5022152;28;46397;-67
2022/01/07 11:01:19;;;;;;;10.40;6.63;;;2.90;67.70;;;;;;5021007;28;48179;-68
2022/01/07 11:03:53;;;;;;;11.60;6.45;;;3.00;67.80;;;;;;5021890;28;45869;-68
2022/01/07 11:06:20;;;;;;;9.73;6.00;;;3.00;67.70;;;;;;5018776;28;45923;-67
2022/01/07 11:08:51;;;;;;;8.95;5.60;;;2.90;68.00;;;;;;5021761;28;46419;-67
2022/01/07 11:11:19;;;;;;;8.48;5.45;;;2.90;69.10;;;;;;5021621;28;48082;-67
2022/01/07 11:13:45;;;;;;;10.88;6.57;;;2.90;67.90;;;;;;5023858;28;46482;-65
2022/01/07 11:16:10;;;;;;;8.52;5.65;;;2.90;67.80;;;;;;5024013;28;46402;-67
2022/01/07 11:18:38;;;;;;;8.57;5.50;;;2.90;67.70;;;;;;5029111;28;45939;-68
2022/01/07 11:21:05;;;;;;;9.07;5.85;;;3.00;67.40;;;;;;5028533;28;49105;-67
2022/01/07 11:23:33;;;;;;;10.38;6.65;;;3.00;67.40;;;;;;5026098;28;46325;-68
2022/01/07 11:26:00;;;;;;;9.77;5.47;;;3.10;67.20;;;;;;5025882;28;46386;-68
2022/01/07 11:28:26;;;;;;;8.15;5.25;;;3.10;67.20;;;;;;5022158;28;46124;-67
2022/01/07 11:31:05;;;;;;;9.37;6.17;;;3.00;67.20;;;;;;5022800;28;47357;-67
2022/01/07 11:33:32;;;;;;;10.35;6.70;;;2.90;67.20;;;;;;5021395;28;46615;-67
2022/01/07 11:35:57;;;;;;;13.00;6.65;;;2.90;67.30;;;;;;5020771;28;46466;-67
2022/01/07 11:38:40;;;;;;;8.00;5.57;;;2.90;67.30;;;;;;5021437;28;46770;-68
2022/01/07 11:41:12;;;;;;;9.85;5.50;;;2.90;67.00;;;;;;5020638;28;48781;-67
2022/01/07 11:43:41;;;;;;;10.93;5.90;;;2.90;67.10;;;;;;5021695;28;46396;-68
2022/01/07 11:46:27;;;;;;;7.32;5.05;;;2.80;67.10;;;;;;5021415;28;45913;-67
2022/01/07 11:48:54;;;;;;;8.60;5.85;;;2.80;67.00;;;;;;5021000;28;46561;-68
2022/01/07 11:51:21;;;;;;;9.90;5.45;;;2.90;67.00;;;;;;5020588;28;47924;-68
2022/01/07 11:53:50;;;;;;;8.65;5.90;;;2.90;67.00;;;;;;5021350;28;46555;-68
2022/01/07 11:56:17;;;;;;;9.70;7.07;;;2.90;66.70;;;;;;5020131;28;46463;-68
2022/01/07 11:58:51;;;;;;;13.95;5.97;;;2.80;66.70;;;;;;5020186;28;45829;-68
2022/01/07 12:01:35;;;;;;;8.02;5.57;;;2.80;66.70;;;;;;5021529;28;49017;-67
2022/01/07 12:04:21;;;;;;;10.45;6.65;;;2.80;66.70;;;;;;5020083;28;45953;-68
2022/01/07 12:06:50;;;;;;;10.52;6.68;;;2.80;66.70;;;;;;5020321;28;45834;-66
2022/01/07 12:09:21;;;;;;;6.65;5.03;;;2.90;66.70;;;;;;5020553;28;46342;-67
2022/01/07 12:12:08;;;;;;;9.55;6.10;;;3.00;66.40;;;;;;5020048;28;48017;-68
2022/01/07 12:14:37;;;;;;;7.22;5.35;;;3.00;66.10;;;;;;5019226;28;46431;-67
2022/01/07 12:17:08;;;;;;;10.10;5.38;;;3.00;66.10;;;;;;5019958;28;46414;-67
2022/01/07 12:19:38;;;;;;;10.63;6.18;;;3.00;65.90;;;;;;5005847;28;46381;-67
2022/01/07 12:22:11;;;;;;;8.13;5.32;;;3.00;65.80;;;;;;5021197;28;47898;-68
2022/01/07 12:24:37;;;;;;;9.95;5.07;;;3.00;65.80;;;;;;5020890;28;46420;-67
2022/01/07 12:27:07;;;;;;;8.73;5.45;;;3.10;65.50;;;;;;5020060;28;46391;-65
2022/01/07 12:29:36;;;;;;;5.80;4.37;;;3.10;65.60;;;;;;5020870;28;46519;-66
2022/01/07 12:32:03;;;;;;;7.47;4.95;;;3.10;65.40;;;;;;5018894;28;47892;-64
2022/01/07 12:34:30;;;;;;;8.52;4.53;;;3.00;65.40;;;;;;5020900;28;46233;-66
2022/01/07 12:37:02;;;;;;;7.40;4.80;;;3.10;65.20;;;;;;5019805;28;46482;-68
2022/01/07 12:39:31;;;;;;;11.43;4.70;;;3.10;65.10;;;;;;5020290;28;46624;-66
2022/01/07 12:41:57;;;;;;;6.97;4.55;;;3.10;65.00;;;;;;5021222;28;47987;-65
2022/01/07 12:44:24;;;;;;;7.70;4.60;;;3.00;65.10;;;;;;5020674;28;46779;-67
2022/01/07 12:46:55;;;;;;;8.45;4.53;;;3.00;65.10;;;;;;5020304;28;45858;-69
2022/01/07 12:49:41;;;;;;;6.50;4.50;;;3.00;65.10;;;;;;5019773;28;46493;-66
2022/01/07 12:52:22;;;;;;;8.13;4.72;;;3.10;65.00;;;;;;5017744;28;49171;-68
2022/01/07 12:54:56;;;;;;;8.13;3.92;;;3.10;65.80;;;;;;5019688;28;46496;-68
2022/01/07 12:57:28;;;;;;;5.65;4.05;;;3.20;64.60;;;;;;5018496;28;46430;-66